Terminal Aerodrome Forecast
Issued by NWS Charleston, WV

Current Version | Previous Version | Graphics & Text | Print | Product List | Glossary On
Versions: 1 2 3 4 5 6 7 8 9 10 11 12 13 14 15 16 17
637
FTUS41 KRLX 221720
TAFEKN
TAF
KEKN 221720Z 2218/2318 VRB04KT P6SM SCT100 BKN250
     FM222300 10005KT P6SM SCT100 SCT250
     FM230800 15007KT P6SM SCT250 WS020/15040KT
     FM231300 16009G20KT P6SM SCT250
     FM231500 16013G20KT P6SM SCT250=

USA.gov is the U.S. government's official web portal to all federal, state and local government web resources and services.